sensor_id;sensor_type;location;lat;lon;timestamp;P1;durP1;ratioP1;P2;durP2;ratioP2
64060;SDS011;60147;55.036;73.242;2022-12-18T00:01:30;21.83;;;10.00;;
64060;SDS011;60147;55.036;73.242;2022-12-18T00:04:00;17.48;;;12.00;;
64060;SDS011;60147;55.036;73.242;2022-12-18T00:06:32;20.02;;;13.38;;
64060;SDS011;60147;55.036;73.242;2022-12-18T00:08:58;19.17;;;9.32;;
64060;SDS011;60147;55.036;73.242;2022-12-18T00:11:26;15.10;;;10.18;;
64060;SDS011;60147;55.036;73.242;2022-12-18T00:13:53;16.23;;;10.48;;
64060;SDS011;60147;55.036;73.242;2022-12-18T00:16:27;17.27;;;10.82;;
64060;SDS011;60147;55.036;73.242;2022-12-18T00:18:54;17.30;;;13.63;;
64060;SDS011;60147;55.036;73.242;2022-12-18T00:21:21;15.68;;;10.85;;
64060;SDS011;60147;55.036;73.242;2022-12-18T00:23:47;14.02;;;11.27;;
64060;SDS011;60147;55.036;73.242;2022-12-18T00:26:24;16.95;;;10.80;;
64060;SDS011;60147;55.036;73.242;2022-12-18T00:28:58;16.02;;;10.50;;
64060;SDS011;60147;55.036;73.242;2022-12-18T00:31:34;9.60;;;8.23;;
64060;SDS011;60147;55.036;73.242;2022-12-18T00:34:00;15.52;;;8.82;;
64060;SDS011;60147;55.036;73.242;2022-12-18T00:36:27;17.58;;;9.75;;
64060;SDS011;60147;55.036;73.242;2022-12-18T00:38:54;27.52;;;10.55;;
64060;SDS011;60147;55.036;73.242;2022-12-18T00:41:20;25.83;;;10.40;;
64060;SDS011;60147;55.036;73.242;2022-12-18T00:44:10;10.15;;;8.20;;
64060;SDS011;60147;55.036;73.242;2022-12-18T00:46:36;21.42;;;13.45;;
64060;SDS011;60147;55.036;73.242;2022-12-18T00:49:02;11.45;;;9.50;;
64060;SDS011;60147;55.036;73.242;2022-12-18T00:51:28;17.55;;;10.48;;
64060;SDS011;60147;55.036;73.242;2022-12-18T00:53:54;21.05;;;11.00;;
64060;SDS011;60147;55.036;73.242;2022-12-18T00:56:30;13.20;;;9.35;;
64060;SDS011;60147;55.036;73.242;2022-12-18T00:58:56;20.48;;;11.30;;
64060;SDS011;60147;55.036;73.242;2022-12-18T01:01:22;13.80;;;8.82;;
64060;SDS011;60147;55.036;73.242;2022-12-18T01:03:48;17.70;;;8.80;;
64060;SDS011;60147;55.036;73.242;2022-12-18T01:06:16;15.52;;;9.60;;
64060;SDS011;60147;55.036;73.242;2022-12-18T01:08:43;18.30;;;8.95;;
64060;SDS011;60147;55.036;73.242;2022-12-18T01:11:15;16.00;;;8.18;;
64060;SDS011;60147;55.036;73.242;2022-12-18T01:13:41;14.50;;;8.07;;
64060;SDS011;60147;55.036;73.242;2022-12-18T01:16:07;23.70;;;11.35;;
64060;SDS011;60147;55.036;73.242;2022-12-18T01:18:34;13.00;;;8.68;;
64060;SDS011;60147;55.036;73.242;2022-12-18T01:21:00;13.60;;;9.48;;
64060;SDS011;60147;55.036;73.242;2022-12-18T01:23:26;23.90;;;10.30;;
64060;SDS011;60147;55.036;73.242;2022-12-18T01:25:52;18.45;;;10.43;;
64060;SDS011;60147;55.036;73.242;2022-12-18T01:30:48;14.98;;;9.35;;
64060;SDS011;60147;55.036;73.242;2022-12-18T01:33:14;11.43;;;7.40;;
64060;SDS011;60147;55.036;73.242;2022-12-18T01:35:41;10.68;;;6.18;;
64060;SDS011;60147;55.036;73.242;2022-12-18T01:38:07;10.05;;;8.63;;
64060;SDS011;60147;55.036;73.242;2022-12-18T01:40:33;13.05;;;7.20;;
64060;SDS011;60147;55.036;73.242;2022-12-18T01:43:01;20.10;;;8.57;;
64060;SDS011;60147;55.036;73.242;2022-12-18T01:45:37;20.38;;;9.85;;
64060;SDS011;60147;55.036;73.242;2022-12-18T01:48:10;17.40;;;8.60;;
64060;SDS011;60147;55.036;73.242;2022-12-18T01:50:37;13.63;;;8.05;;
64060;SDS011;60147;55.036;73.242;2022-12-18T01:53:30;21.88;;;11.00;;
64060;SDS011;60147;55.036;73.242;2022-12-18T01:55:57;11.45;;;9.02;;
64060;SDS011;60147;55.036;73.242;2022-12-18T01:58:27;17.23;;;8.50;;
64060;SDS011;60147;55.036;73.242;2022-12-18T02:00:55;19.77;;;7.10;;
64060;SDS011;60147;55.036;73.242;2022-12-18T02:03:21;14.80;;;7.57;;
64060;SDS011;60147;55.036;73.242;2022-12-18T02:05:54;8.90;;;7.57;;
64060;SDS011;60147;55.036;73.242;2022-12-18T02:11:14;14.80;;;7.57;;
64060;SDS011;60147;55.036;73.242;2022-12-18T02:13:46;10.68;;;7.70;;
64060;SDS011;60147;55.036;73.242;2022-12-18T02:18:46;12.30;;;8.50;;
64060;SDS011;60147;55.036;73.242;2022-12-18T02:26:14;13.10;;;9.60;;
64060;SDS011;60147;55.036;73.242;2022-12-18T02:31:53;13.73;;;8.77;;
64060;SDS011;60147;55.036;73.242;2022-12-18T02:34:21;27.70;;;10.95;;
64060;SDS011;60147;55.036;73.242;2022-12-18T02:36:47;18.55;;;12.15;;
64060;SDS011;60147;55.036;73.242;2022-12-18T02:39:25;14.70;;;10.60;;
64060;SDS011;60147;55.036;73.242;2022-12-18T02:42:08;14.13;;;7.57;;
64060;SDS011;60147;55.036;73.242;2022-12-18T02:44:35;23.23;;;12.35;;
64060;SDS011;60147;55.036;73.242;2022-12-18T02:47:18;13.00;;;9.60;;
64060;SDS011;60147;55.036;73.242;2022-12-18T02:57:42;12.50;;;9.23;;
64060;SDS011;60147;55.036;73.242;2022-12-18T03:05:47;22.50;;;10.55;;
64060;SDS011;60147;55.036;73.242;2022-12-18T03:08:22;11.45;;;9.73;;
64060;SDS011;60147;55.036;73.242;2022-12-18T03:10:57;15.93;;;10.10;;
64060;SDS011;60147;55.036;73.242;2022-12-18T03:13:26;18.25;;;13.73;;
64060;SDS011;60147;55.036;73.242;2022-12-18T03:15:56;10.55;;;7.60;;
64060;SDS011;60147;55.036;73.242;2022-12-18T03:21:00;19.60;;;13.20;;
64060;SDS011;60147;55.036;73.242;2022-12-18T03:23:30;18.17;;;11.60;;
64060;SDS011;60147;55.036;73.242;2022-12-18T03:25:59;23.85;;;11.05;;
64060;SDS011;60147;55.036;73.242;2022-12-18T03:28:26;22.63;;;11.18;;
64060;SDS011;60147;55.036;73.242;2022-12-18T03:30:59;12.13;;;9.82;;
64060;SDS011;60147;55.036;73.242;2022-12-18T03:35:58;22.42;;;11.38;;
64060;SDS011;60147;55.036;73.242;2022-12-18T03:38:24;18.40;;;13.15;;
64060;SDS011;60147;55.036;73.242;2022-12-18T03:43:34;20.35;;;12.40;;
64060;SDS011;60147;55.036;73.242;2022-12-18T03:46:06;28.23;;;12.50;;
64060;SDS011;60147;55.036;73.242;2022-12-18T03:48:43;31.75;;;16.95;;
64060;SDS011;60147;55.036;73.242;2022-12-18T03:51:35;29.13;;;14.35;;
64060;SDS011;60147;55.036;73.242;2022-12-18T03:54:03;38.10;;;13.68;;
64060;SDS011;60147;55.036;73.242;2022-12-18T03:56:37;26.67;;;14.40;;
64060;SDS011;60147;55.036;73.242;2022-12-18T03:59:05;23.90;;;11.38;;
64060;SDS011;60147;55.036;73.242;2022-12-18T04:01:33;21.25;;;12.18;;
64060;SDS011;60147;55.036;73.242;2022-12-18T04:04:03;18.33;;;13.43;;
64060;SDS011;60147;55.036;73.242;2022-12-18T04:06:33;22.33;;;15.02;;
64060;SDS011;60147;55.036;73.242;2022-12-18T04:09:00;32.17;;;14.15;;
64060;SDS011;60147;55.036;73.242;2022-12-18T04:11:27;36.55;;;14.05;;
64060;SDS011;60147;55.036;73.242;2022-12-18T04:13:57;26.17;;;13.70;;
64060;SDS011;60147;55.036;73.242;2022-12-18T04:16:24;34.13;;;15.52;;
64060;SDS011;60147;55.036;73.242;2022-12-18T04:21:20;14.05;;;10.90;;
64060;SDS011;60147;55.036;73.242;2022-12-18T04:23:48;21.25;;;12.73;;
64060;SDS011;60147;55.036;73.242;2022-12-18T04:26:14;23.45;;;11.95;;
64060;SDS011;60147;55.036;73.242;2022-12-18T04:28:58;17.13;;;11.35;;
64060;SDS011;60147;55.036;73.242;2022-12-18T04:31:23;24.30;;;12.18;;
64060;SDS011;60147;55.036;73.242;2022-12-18T04:34:01;26.92;;;14.82;;
64060;SDS011;60147;55.036;73.242;2022-12-18T04:36:27;25.05;;;16.35;;
64060;SDS011;60147;55.036;73.242;2022-12-18T04:38:54;31.30;;;14.93;;
64060;SDS011;60147;55.036;73.242;2022-12-18T04:41:20;31.48;;;15.07;;
64060;SDS011;60147;55.036;73.242;2022-12-18T04:43:47;28.75;;;15.23;;
64060;SDS011;60147;55.036;73.242;2022-12-18T04:46:13;20.88;;;15.02;;
64060;SDS011;60147;55.036;73.242;2022-12-18T04:48:40;29.83;;;17.13;;
64060;SDS011;60147;55.036;73.242;2022-12-18T04:51:06;24.65;;;15.30;;
64060;SDS011;60147;55.036;73.242;2022-12-18T04:53:32;28.88;;;16.75;;
64060;SDS011;60147;55.036;73.242;2022-12-18T04:56:04;28.00;;;14.40;;
64060;SDS011;60147;55.036;73.242;2022-12-18T04:58:30;39.67;;;15.80;;
64060;SDS011;60147;55.036;73.242;2022-12-18T05:01:06;18.50;;;12.10;;
64060;SDS011;60147;55.036;73.242;2022-12-18T05:03:33;22.20;;;13.10;;
64060;SDS011;60147;55.036;73.242;2022-12-18T05:05:59;23.65;;;13.10;;
64060;SDS011;60147;55.036;73.242;2022-12-18T05:08:30;22.92;;;14.27;;
64060;SDS011;60147;55.036;73.242;2022-12-18T05:11:03;24.90;;;12.77;;
64060;SDS011;60147;55.036;73.242;2022-12-18T05:13:34;21.25;;;14.20;;
64060;SDS011;60147;55.036;73.242;2022-12-18T05:16:01;30.23;;;15.07;;
64060;SDS011;60147;55.036;73.242;2022-12-18T05:18:28;27.80;;;13.63;;
64060;SDS011;60147;55.036;73.242;2022-12-18T05:20:54;22.55;;;13.40;;
64060;SDS011;60147;55.036;73.242;2022-12-18T05:23:20;29.63;;;12.43;;
64060;SDS011;60147;55.036;73.242;2022-12-18T05:25:53;39.67;;;15.93;;
64060;SDS011;60147;55.036;73.242;2022-12-18T05:28:19;29.92;;;16.88;;
64060;SDS011;60147;55.036;73.242;2022-12-18T05:30:47;37.97;;;17.90;;
64060;SDS011;60147;55.036;73.242;2022-12-18T05:33:14;39.50;;;18.90;;
64060;SDS011;60147;55.036;73.242;2022-12-18T05:35:49;64.75;;;20.10;;
64060;SDS011;60147;55.036;73.242;2022-12-18T05:40:52;27.52;;;15.23;;
64060;SDS011;60147;55.036;73.242;2022-12-18T05:43:19;38.38;;;14.50;;
64060;SDS011;60147;55.036;73.242;2022-12-18T05:45:45;37.70;;;17.02;;
64060;SDS011;60147;55.036;73.242;2022-12-18T05:48:10;28.73;;;14.73;;
64060;SDS011;60147;55.036;73.242;2022-12-18T05:50:40;39.70;;;19.10;;
64060;SDS011;60147;55.036;73.242;2022-12-18T05:53:17;44.95;;;19.15;;
64060;SDS011;60147;55.036;73.242;2022-12-18T05:55:43;24.23;;;15.77;;
64060;SDS011;60147;55.036;73.242;2022-12-18T05:58:09;37.05;;;19.65;;
64060;SDS011;60147;55.036;73.242;2022-12-18T06:00:42;42.78;;;19.52;;
64060;SDS011;60147;55.036;73.242;2022-12-18T06:03:08;46.30;;;21.17;;
64060;SDS011;60147;55.036;73.242;2022-12-18T06:05:43;46.55;;;18.83;;
64060;SDS011;60147;55.036;73.242;2022-12-18T06:08:15;41.28;;;21.30;;
64060;SDS011;60147;55.036;73.242;2022-12-18T06:10:41;29.13;;;15.50;;
64060;SDS011;60147;55.036;73.242;2022-12-18T06:13:07;44.55;;;20.05;;
64060;SDS011;60147;55.036;73.242;2022-12-18T06:15:41;44.53;;;19.92;;
64060;SDS011;60147;55.036;73.242;2022-12-18T06:18:07;46.47;;;20.80;;
64060;SDS011;60147;55.036;73.242;2022-12-18T06:20:33;50.45;;;18.30;;
64060;SDS011;60147;55.036;73.242;2022-12-18T06:23:11;52.97;;;18.42;;
64060;SDS011;60147;55.036;73.242;2022-12-18T06:25:39;31.75;;;17.80;;
64060;SDS011;60147;55.036;73.242;2022-12-18T06:28:05;28.27;;;14.93;;
64060;SDS011;60147;55.036;73.242;2022-12-18T06:30:31;32.10;;;12.75;;
64060;SDS011;60147;55.036;73.242;2022-12-18T06:32:57;20.98;;;12.27;;
64060;SDS011;60147;55.036;73.242;2022-12-18T06:35:33;29.67;;;15.23;;
64060;SDS011;60147;55.036;73.242;2022-12-18T06:38:00;38.03;;;14.70;;
64060;SDS011;60147;55.036;73.242;2022-12-18T06:40:26;22.33;;;11.63;;
64060;SDS011;60147;55.036;73.242;2022-12-18T06:45:22;17.85;;;11.77;;
64060;SDS011;60147;55.036;73.242;2022-12-18T06:47:48;34.78;;;12.07;;
64060;SDS011;60147;55.036;73.242;2022-12-18T06:50:26;35.22;;;14.10;;
64060;SDS011;60147;55.036;73.242;2022-12-18T06:52:52;32.75;;;12.55;;
64060;SDS011;60147;55.036;73.242;2022-12-18T06:55:18;32.72;;;14.05;;
64060;SDS011;60147;55.036;73.242;2022-12-18T06:57:44;34.05;;;16.38;;
64060;SDS011;60147;55.036;73.242;2022-12-18T07:00:10;32.95;;;16.70;;
64060;SDS011;60147;55.036;73.242;2022-12-18T07:02:46;24.27;;;11.60;;
64060;SDS011;60147;55.036;73.242;2022-12-18T07:05:11;33.50;;;16.05;;
64060;SDS011;60147;55.036;73.242;2022-12-18T07:07:37;26.13;;;14.68;;
64060;SDS011;60147;55.036;73.242;2022-12-18T07:10:03;27.65;;;13.85;;
64060;SDS011;60147;55.036;73.242;2022-12-18T07:12:29;33.67;;;15.90;;
64060;SDS011;60147;55.036;73.242;2022-12-18T07:14:55;21.92;;;13.68;;
64060;SDS011;60147;55.036;73.242;2022-12-18T07:17:21;23.40;;;12.75;;
64060;SDS011;60147;55.036;73.242;2022-12-18T07:19:47;30.60;;;14.40;;
64060;SDS011;60147;55.036;73.242;2022-12-18T07:22:12;34.50;;;15.75;;
64060;SDS011;60147;55.036;73.242;2022-12-18T07:24:38;38.47;;;16.42;;
64060;SDS011;60147;55.036;73.242;2022-12-18T07:27:04;37.33;;;16.63;;
64060;SDS011;60147;55.036;73.242;2022-12-18T07:29:30;36.30;;;16.42;;
64060;SDS011;60147;55.036;73.242;2022-12-18T07:31:56;36.70;;;15.80;;
64060;SDS011;60147;55.036;73.242;2022-12-18T07:34:22;39.75;;;15.73;;
64060;SDS011;60147;55.036;73.242;2022-12-18T07:36:58;40.20;;;14.57;;
64060;SDS011;60147;55.036;73.242;2022-12-18T07:39:23;29.65;;;16.50;;
64060;SDS011;60147;55.036;73.242;2022-12-18T07:41:49;35.00;;;14.85;;
64060;SDS011;60147;55.036;73.242;2022-12-18T07:47:08;32.10;;;14.75;;
64060;SDS011;60147;55.036;73.242;2022-12-18T07:49:33;59.97;;;22.73;;
64060;SDS011;60147;55.036;73.242;2022-12-18T07:51:59;51.30;;;19.42;;
64060;SDS011;60147;55.036;73.242;2022-12-18T07:54:25;52.08;;;16.80;;
64060;SDS011;60147;55.036;73.242;2022-12-18T07:56:57;48.08;;;18.98;;
64060;SDS011;60147;55.036;73.242;2022-12-18T07:59:22;53.25;;;20.35;;
64060;SDS011;60147;55.036;73.242;2022-12-18T08:01:55;56.47;;;19.02;;
64060;SDS011;60147;55.036;73.242;2022-12-18T08:04:20;54.53;;;15.90;;
64060;SDS011;60147;55.036;73.242;2022-12-18T08:06:46;60.75;;;16.60;;
64060;SDS011;60147;55.036;73.242;2022-12-18T08:09:12;51.83;;;15.70;;
64060;SDS011;60147;55.036;73.242;2022-12-18T08:11:38;48.35;;;15.70;;
64060;SDS011;60147;55.036;73.242;2022-12-18T08:14:04;40.83;;;16.65;;
64060;SDS011;60147;55.036;73.242;2022-12-18T08:16:48;25.98;;;11.77;;
64060;SDS011;60147;55.036;73.242;2022-12-18T08:19:14;24.17;;;10.63;;
64060;SDS011;60147;55.036;73.242;2022-12-18T08:21:40;28.77;;;11.88;;
64060;SDS011;60147;55.036;73.242;2022-12-18T08:24:08;15.48;;;9.45;;
64060;SDS011;60147;55.036;73.242;2022-12-18T08:26:34;30.58;;;12.40;;
64060;SDS011;60147;55.036;73.242;2022-12-18T08:29:00;32.38;;;12.15;;
64060;SDS011;60147;55.036;73.242;2022-12-18T08:31:27;25.13;;;11.13;;
64060;SDS011;60147;55.036;73.242;2022-12-18T08:33:53;19.48;;;10.55;;
64060;SDS011;60147;55.036;73.242;2022-12-18T08:36:19;24.13;;;11.32;;
64060;SDS011;60147;55.036;73.242;2022-12-18T08:38:45;29.35;;;17.73;;
64060;SDS011;60147;55.036;73.242;2022-12-18T08:41:12;23.58;;;9.90;;
64060;SDS011;60147;55.036;73.242;2022-12-18T08:43:38;45.65;;;17.60;;
64060;SDS011;60147;55.036;73.242;2022-12-18T08:46:30;26.42;;;12.57;;
64060;SDS011;60147;55.036;73.242;2022-12-18T08:48:57;7.75;;;6.97;;
64060;SDS011;60147;55.036;73.242;2022-12-18T08:51:22;49.00;;;24.55;;
64060;SDS011;60147;55.036;73.242;2022-12-18T08:53:58;50.25;;;26.42;;
64060;SDS011;60147;55.036;73.242;2022-12-18T08:56:24;35.00;;;17.83;;
64060;SDS011;60147;55.036;73.242;2022-12-18T08:58:54;40.78;;;20.60;;
64060;SDS011;60147;55.036;73.242;2022-12-18T09:01:20;37.63;;;17.73;;
64060;SDS011;60147;55.036;73.242;2022-12-18T09:03:46;24.77;;;13.60;;
64060;SDS011;60147;55.036;73.242;2022-12-18T09:06:16;28.17;;;13.95;;
64060;SDS011;60147;55.036;73.242;2022-12-18T09:08:48;206.68;;;65.03;;
64060;SDS011;60147;55.036;73.242;2022-12-18T09:11:15;125.60;;;43.13;;
64060;SDS011;60147;55.036;73.242;2022-12-18T09:13:41;203.02;;;62.80;;
64060;SDS011;60147;55.036;73.242;2022-12-18T09:16:07;102.50;;;37.95;;
64060;SDS011;60147;55.036;73.242;2022-12-18T09:21:21;85.32;;;35.70;;
64060;SDS011;60147;55.036;73.242;2022-12-18T09:23:50;74.28;;;29.80;;
64060;SDS011;60147;55.036;73.242;2022-12-18T09:26:16;119.70;;;52.15;;
64060;SDS011;60147;55.036;73.242;2022-12-18T09:28:42;44.08;;;22.30;;
64060;SDS011;60147;55.036;73.242;2022-12-18T09:31:08;72.90;;;42.08;;
64060;SDS011;60147;55.036;73.242;2022-12-18T09:33:36;50.40;;;27.85;;
64060;SDS011;60147;55.036;73.242;2022-12-18T09:36:05;35.97;;;17.40;;
64060;SDS011;60147;55.036;73.242;2022-12-18T09:38:31;29.65;;;13.98;;
64060;SDS011;60147;55.036;73.242;2022-12-18T09:40:59;27.95;;;14.52;;
64060;SDS011;60147;55.036;73.242;2022-12-18T09:43:35;27.00;;;12.52;;
64060;SDS011;60147;55.036;73.242;2022-12-18T09:46:04;25.13;;;13.15;;
64060;SDS011;60147;55.036;73.242;2022-12-18T09:48:32;25.83;;;13.23;;
64060;SDS011;60147;55.036;73.242;2022-12-18T09:51:01;31.98;;;13.85;;
64060;SDS011;60147;55.036;73.242;2022-12-18T09:53:29;25.17;;;13.57;;
64060;SDS011;60147;55.036;73.242;2022-12-18T09:56:05;47.35;;;21.80;;
64060;SDS011;60147;55.036;73.242;2022-12-18T09:58:44;30.70;;;15.98;;
64060;SDS011;60147;55.036;73.242;2022-12-18T10:01:13;28.48;;;15.48;;
64060;SDS011;60147;55.036;73.242;2022-12-18T10:03:43;27.70;;;13.25;;
64060;SDS011;60147;55.036;73.242;2022-12-18T10:14:07;34.55;;;17.17;;
64060;SDS011;60147;55.036;73.242;2022-12-18T10:16:57;28.55;;;11.38;;
64060;SDS011;60147;55.036;73.242;2022-12-18T10:22:11;65.25;;;25.73;;
64060;SDS011;60147;55.036;73.242;2022-12-18T10:27:42;196.65;;;79.50;;
64060;SDS011;60147;55.036;73.242;2022-12-18T10:30:12;195.85;;;73.57;;
64060;SDS011;60147;55.036;73.242;2022-12-18T10:32:39;119.57;;;47.90;;
64060;SDS011;60147;55.036;73.242;2022-12-18T10:35:07;94.35;;;39.47;;
64060;SDS011;60147;55.036;73.242;2022-12-18T10:37:38;72.82;;;34.63;;
64060;SDS011;60147;55.036;73.242;2022-12-18T10:40:35;65.38;;;29.10;;
64060;SDS011;60147;55.036;73.242;2022-12-18T10:43:26;66.88;;;28.80;;
64060;SDS011;60147;55.036;73.242;2022-12-18T10:46:04;48.67;;;23.88;;
64060;SDS011;60147;55.036;73.242;2022-12-18T10:51:25;39.78;;;21.48;;
64060;SDS011;60147;55.036;73.242;2022-12-18T10:54:03;58.15;;;23.75;;
64060;SDS011;60147;55.036;73.242;2022-12-18T10:56:35;49.25;;;20.33;;
64060;SDS011;60147;55.036;73.242;2022-12-18T10:59:03;51.22;;;21.13;;
64060;SDS011;60147;55.036;73.242;2022-12-18T11:04:23;29.02;;;16.63;;
64060;SDS011;60147;55.036;73.242;2022-12-18T11:06:53;42.15;;;17.27;;
64060;SDS011;60147;55.036;73.242;2022-12-18T11:09:33;34.53;;;15.35;;
64060;SDS011;60147;55.036;73.242;2022-12-18T11:14:42;36.45;;;15.75;;
64060;SDS011;60147;55.036;73.242;2022-12-18T11:17:51;30.50;;;15.45;;
64060;SDS011;60147;55.036;73.242;2022-12-18T11:19:59;35.67;;;16.42;;
64060;SDS011;60147;55.036;73.242;2022-12-18T11:22:27;37.58;;;17.48;;
64060;SDS011;60147;55.036;73.242;2022-12-18T11:24:57;35.55;;;18.48;;
64060;SDS011;60147;55.036;73.242;2022-12-18T11:27:24;49.97;;;20.38;;
64060;SDS011;60147;55.036;73.242;2022-12-18T11:30:20;41.72;;;17.83;;
64060;SDS011;60147;55.036;73.242;2022-12-18T11:38:02;39.15;;;16.85;;
64060;SDS011;60147;55.036;73.242;2022-12-18T11:40:40;33.72;;;13.48;;
64060;SDS011;60147;55.036;73.242;2022-12-18T11:43:14;28.92;;;14.25;;
64060;SDS011;60147;55.036;73.242;2022-12-18T11:45:49;46.15;;;17.60;;
64060;SDS011;60147;55.036;73.242;2022-12-18T11:48:28;24.98;;;14.60;;
64060;SDS011;60147;55.036;73.242;2022-12-18T11:50:56;36.30;;;19.75;;
64060;SDS011;60147;55.036;73.242;2022-12-18T11:53:23;46.50;;;19.05;;
64060;SDS011;60147;55.036;73.242;2022-12-18T11:58:26;50.53;;;23.42;;
64060;SDS011;60147;55.036;73.242;2022-12-18T12:06:18;53.53;;;22.48;;
64060;SDS011;60147;55.036;73.242;2022-12-18T12:14:25;54.13;;;22.63;;
64060;SDS011;60147;55.036;73.242;2022-12-18T12:16:46;74.35;;;24.17;;
64060;SDS011;60147;55.036;73.242;2022-12-18T12:21:55;55.67;;;21.17;;
64060;SDS011;60147;55.036;73.242;2022-12-18T12:40:12;46.65;;;21.50;;
64060;SDS011;60147;55.036;73.242;2022-12-18T12:42:44;44.65;;;19.00;;
64060;SDS011;60147;55.036;73.242;2022-12-18T12:45:32;41.97;;;19.85;;
64060;SDS011;60147;55.036;73.242;2022-12-18T12:48:01;61.88;;;23.33;;
64060;SDS011;60147;55.036;73.242;2022-12-18T12:50:28;45.25;;;20.33;;
64060;SDS011;60147;55.036;73.242;2022-12-18T12:52:59;55.35;;;23.70;;
64060;SDS011;60147;55.036;73.242;2022-12-18T12:55:27;73.22;;;30.98;;
64060;SDS011;60147;55.036;73.242;2022-12-18T13:00:27;66.90;;;29.65;;
64060;SDS011;60147;55.036;73.242;2022-12-18T13:03:02;51.33;;;23.80;;
64060;SDS011;60147;55.036;73.242;2022-12-18T13:08:05;51.05;;;22.70;;
64060;SDS011;60147;55.036;73.242;2022-12-18T13:10:36;67.38;;;27.42;;
64060;SDS011;60147;55.036;73.242;2022-12-18T13:13:06;63.15;;;26.73;;
64060;SDS011;60147;55.036;73.242;2022-12-18T13:18:11;62.33;;;27.80;;
64060;SDS011;60147;55.036;73.242;2022-12-18T13:20:39;28.08;;;15.40;;
64060;SDS011;60147;55.036;73.242;2022-12-18T13:31:11;46.45;;;17.70;;
64060;SDS011;60147;55.036;73.242;2022-12-18T13:38:36;43.05;;;16.77;;
64060;SDS011;60147;55.036;73.242;2022-12-18T13:43:44;47.70;;;17.55;;
64060;SDS011;60147;55.036;73.242;2022-12-18T13:51:27;46.55;;;20.83;;
64060;SDS011;60147;55.036;73.242;2022-12-18T13:53:55;50.05;;;19.83;;
64060;SDS011;60147;55.036;73.242;2022-12-18T13:56:33;51.08;;;23.83;;
64060;SDS011;60147;55.036;73.242;2022-12-18T13:59:03;49.90;;;23.25;;
64060;SDS011;60147;55.036;73.242;2022-12-18T14:01:29;36.95;;;16.55;;
64060;SDS011;60147;55.036;73.242;2022-12-18T14:04:12;50.80;;;19.80;;
64060;SDS011;60147;55.036;73.242;2022-12-18T14:06:38;38.60;;;17.83;;
64060;SDS011;60147;55.036;73.242;2022-12-18T14:09:04;38.17;;;17.20;;
64060;SDS011;60147;55.036;73.242;2022-12-18T14:11:30;30.83;;;14.48;;
64060;SDS011;60147;55.036;73.242;2022-12-18T14:13:56;33.67;;;16.92;;
64060;SDS011;60147;55.036;73.242;2022-12-18T14:16:26;38.70;;;17.15;;
64060;SDS011;60147;55.036;73.242;2022-12-18T14:18:54;38.28;;;17.30;;
64060;SDS011;60147;55.036;73.242;2022-12-18T14:23:49;40.10;;;14.45;;
64060;SDS011;60147;55.036;73.242;2022-12-18T14:26:29;36.60;;;16.83;;
64060;SDS011;60147;55.036;73.242;2022-12-18T14:28:55;38.10;;;17.40;;
64060;SDS011;60147;55.036;73.242;2022-12-18T14:31:23;53.17;;;17.55;;
64060;SDS011;60147;55.036;73.242;2022-12-18T14:33:50;33.78;;;15.93;;
64060;SDS011;60147;55.036;73.242;2022-12-18T14:36:17;36.63;;;17.00;;
64060;SDS011;60147;55.036;73.242;2022-12-18T14:38:47;40.83;;;19.00;;
64060;SDS011;60147;55.036;73.242;2022-12-18T14:41:14;42.75;;;17.98;;
64060;SDS011;60147;55.036;73.242;2022-12-18T14:43:42;47.47;;;19.83;;
64060;SDS011;60147;55.036;73.242;2022-12-18T14:46:28;57.40;;;18.63;;
64060;SDS011;60147;55.036;73.242;2022-12-18T14:49:14;54.90;;;21.67;;
64060;SDS011;60147;55.036;73.242;2022-12-18T14:51:49;53.08;;;23.52;;
64060;SDS011;60147;55.036;73.242;2022-12-18T14:54:22;61.15;;;25.90;;
64060;SDS011;60147;55.036;73.242;2022-12-18T14:57:03;56.58;;;21.52;;
64060;SDS011;60147;55.036;73.242;2022-12-18T14:59:34;37.63;;;19.23;;
64060;SDS011;60147;55.036;73.242;2022-12-18T15:02:15;44.90;;;20.65;;
64060;SDS011;60147;55.036;73.242;2022-12-18T15:04:44;42.63;;;20.58;;
64060;SDS011;60147;55.036;73.242;2022-12-18T15:07:20;43.65;;;22.05;;
64060;SDS011;60147;55.036;73.242;2022-12-18T15:10:08;28.00;;;16.20;;
64060;SDS011;60147;55.036;73.242;2022-12-18T15:12:39;51.20;;;19.83;;
64060;SDS011;60147;55.036;73.242;2022-12-18T15:18:05;48.10;;;18.60;;
64060;SDS011;60147;55.036;73.242;2022-12-18T15:23:16;40.90;;;20.85;;
64060;SDS011;60147;55.036;73.242;2022-12-18T15:25:44;40.90;;;18.75;;
64060;SDS011;60147;55.036;73.242;2022-12-18T15:28:23;50.33;;;15.77;;
64060;SDS011;60147;55.036;73.242;2022-12-18T15:31:03;36.50;;;19.15;;
64060;SDS011;60147;55.036;73.242;2022-12-18T15:36:09;43.83;;;16.88;;
64060;SDS011;60147;55.036;73.242;2022-12-18T15:38:48;34.15;;;17.90;;
64060;SDS011;60147;55.036;73.242;2022-12-18T15:41:14;38.97;;;17.25;;
64060;SDS011;60147;55.036;73.242;2022-12-18T15:43:50;58.78;;;23.30;;
64060;SDS011;60147;55.036;73.242;2022-12-18T15:46:21;57.55;;;20.90;;
64060;SDS011;60147;55.036;73.242;2022-12-18T15:48:51;46.75;;;23.70;;
64060;SDS011;60147;55.036;73.242;2022-12-18T15:51:21;54.97;;;23.27;;
64060;SDS011;60147;55.036;73.242;2022-12-18T15:53:54;36.08;;;17.80;;
64060;SDS011;60147;55.036;73.242;2022-12-18T15:56:31;32.63;;;16.38;;
64060;SDS011;60147;55.036;73.242;2022-12-18T15:59:17;44.45;;;21.15;;
64060;SDS011;60147;55.036;73.242;2022-12-18T16:01:44;47.58;;;20.83;;
64060;SDS011;60147;55.036;73.242;2022-12-18T16:04:15;47.97;;;21.63;;
64060;SDS011;60147;55.036;73.242;2022-12-18T16:06:49;41.63;;;20.50;;
64060;SDS011;60147;55.036;73.242;2022-12-18T16:09:15;47.63;;;21.60;;
64060;SDS011;60147;55.036;73.242;2022-12-18T16:11:42;44.72;;;19.20;;
64060;SDS011;60147;55.036;73.242;2022-12-18T16:14:19;45.08;;;19.90;;
64060;SDS011;60147;55.036;73.242;2022-12-18T16:16:50;59.75;;;21.45;;
64060;SDS011;60147;55.036;73.242;2022-12-18T16:19:16;40.28;;;18.30;;
64060;SDS011;60147;55.036;73.242;2022-12-18T16:21:52;48.38;;;17.83;;
64060;SDS011;60147;55.036;73.242;2022-12-18T16:24:21;40.70;;;16.77;;
64060;SDS011;60147;55.036;73.242;2022-12-18T16:26:53;48.33;;;20.45;;
64060;SDS011;60147;55.036;73.242;2022-12-18T16:29:29;44.05;;;18.98;;
64060;SDS011;60147;55.036;73.242;2022-12-18T16:31:57;42.47;;;19.45;;
64060;SDS011;60147;55.036;73.242;2022-12-18T16:34:27;38.88;;;17.35;;
64060;SDS011;60147;55.036;73.242;2022-12-18T16:36:58;57.63;;;19.35;;
64060;SDS011;60147;55.036;73.242;2022-12-18T16:39:29;38.45;;;18.25;;
64060;SDS011;60147;55.036;73.242;2022-12-18T16:41:56;45.72;;;20.80;;
64060;SDS011;60147;55.036;73.242;2022-12-18T16:44:32;52.58;;;20.23;;
64060;SDS011;60147;55.036;73.242;2022-12-18T16:46:59;47.65;;;19.38;;
64060;SDS011;60147;55.036;73.242;2022-12-18T16:49:27;41.42;;;17.15;;
64060;SDS011;60147;55.036;73.242;2022-12-18T16:51:54;39.10;;;15.68;;
64060;SDS011;60147;55.036;73.242;2022-12-18T16:56:55;36.33;;;16.13;;
64060;SDS011;60147;55.036;73.242;2022-12-18T16:59:21;30.85;;;15.50;;